• Join FlightAware (Why Join?)
  • Login
  • US Flag 
03:19PM EST


 

Airport Tracker/Info


-or-


 

Live Flight TrackerFlight Track Log ✈ SKW6315 ✈ 24-May-2012 ✈ KPSP - KLAX

Flight Track Log - Related Links

Times and Time Zones

All times are in EDT time to prevent confusion due to time zone crossing. See the SKW6315 flight status page for this flight to view local times or setup timezone preferences in your user account.

Time Position Orientation Groundspeed Altitude Reporting Facility
EDT Latitude Longitude Course Direction KTS MPH feet Rate Location/Type
11:29AM 33.8326 -116.5514 North  Level FlightAware Approximate
11:30AM 33.8833 -116.5500 309° West 190 219 3,000  Level Southern California TRACON
11:35AM 33.9500 -116.6500 270° West 243 280 10,000 1,140 Climbing Southern California TRACON
11:36AM 33.9500 -116.7333 270° West 256 295 10,000  Level Southern California TRACON
11:37AM 33.9500 -116.8167 270° West 251 289 10,000  Level Southern California TRACON
11:38AM 33.9500 -116.9167 256° West 246 283 10,000 -300 Level Southern California TRACON
11:39AM 33.9333 -117.0000 270° West 254 292 9,400 -960 Descending Southern California TRACON
11:40AM 33.9333 -117.0833 270° West 277 319 8,100 -840 Descending Southern California TRACON
11:41AM 33.9333 -117.1667 270° West 266 306 7,900 -60 Descending Southern California TRACON
11:42AM 33.9333 -117.2500 270° West 254 292 8,000  Climbing Southern California TRACON
11:43AM 33.9333 -117.3333 256° West 251 289 8,000 -60 Level Southern California TRACON
11:44AM 33.9167 -117.4167 270° West 249 287 7,900 -60 Descending Southern California TRACON
11:45AM 33.9167 -117.5167 270° West 254 292 7,900  Level Southern California TRACON
11:46AM 33.9167 -117.6000 270° West 250 288 7,900  Level Southern California TRACON
11:47AM 33.9167 -117.6833 270° West 252 290 7,900  Level Southern California TRACON
11:48AM 33.9167 -117.7667 284° West 252 290 7,900  Level Southern California TRACON
11:49AM 33.9333 -117.8500 270° West 257 296 7,900 -660 Level Southern California TRACON
11:50AM 33.9333 -117.9333 284° West 282 325 6,600 -600 Descending Southern California TRACON
11:51AM 33.9500 -118.0167 287° West 218 251 6,700 -600 Climbing Southern California TRACON
11:52AM 33.9667 -118.0833 270° West 190 219 5,400 -1,200 Descending Southern California TRACON
11:53AM 33.9667 -118.1333 253° West 178 205 4,400 -1,020 Descending Southern California TRACON
11:54AM 33.9500 -118.2000 270° West 171 197 3,400 -1,020 Descending Southern California TRACON
11:55AM 33.9500 -118.2500 270° West 171 197 2,400 -1,140 Descending Southern California TRACON